Latest Weather Observations for Albion Park

IDN60801

Issued at 4:22 pm EST Tuesday 16 July 2019 (issued every 10 minutes, with the page automatically refreshed every 10 minutes)

About weather observations | Map of weather stations | Latest weather observations for NSW | Other Formats
Station Details ID: 068241 Name: WOLLONGONG AIRPORT Lat: -34.56 Lon: 150.79 Height: 8.0 m
Data from the previous 72 hours. | See also: Recent months at Albion Park
Date/Time
EST
Temp
°C
App
Temp
°C
Dew
Point
°C
Rel
Hum
%
Delta-T
°C
Wind Press
QNH
hPa
Press
MSL
hPa
Rain since
9am
mm
Dir  Spd
km/h
Gust
km/h
Spd
kts
Gust
kts
16/04:00pm 16.5 7.1 4.5 45 5.6 WSW 43 59 23 32 1016.2 1016.2 0.0
16/03:30pm 17.4 8.5 5.0 44 5.9 WSW 41 52 22 28 1016.0 1016.0 0.0
16/03:00pm 18.0 9.9 5.2 43 6.2 WSW 37 54 20 29 1016.0 1016.0 0.0
16/02:57pm 18.0 9.4 4.9 42 6.3 WSW 39 54 21 29 1016.0 1016.0 0.0
16/02:30pm 19.0 13.0 5.5 41 6.6 W 26 35 14 19 1016.1 1016.1 0.0
16/02:00pm 19.2 14.2 4.6 38 7.0 W 20 32 11 17 1016.0 1016.0 0.0
16/01:30pm 19.6 13.9 4.9 38 7.1 W 24 37 13 20 1015.8 1015.8 0.0
16/01:00pm 19.2 11.8 4.9 39 6.9 W 33 44 18 24 1016.0 1016.0 0.0
16/12:30pm 18.7 11.2 4.5 39 6.8 WSW 33 44 18 24 1016.1 1016.1 0.0
16/12:00pm 18.3 9.7 4.8 41 6.5 W 39 50 21 27 1016.4 1016.4 0.0
16/11:30am 18.2 11.2 5.8 44 6.1 WSW 32 39 17 21 1016.9 1016.9 0.0
16/11:00am 17.8 10.2 5.7 45 5.9 WSW 35 43 19 23 1017.5 1017.5 0.0
16/10:30am 17.2 8.8 5.5 46 5.6 WSW 39 50 21 27 1017.7 1017.7 0.0
16/10:00am 16.2 8.5 5.2 48 5.2 WSW 35 44 19 24 1017.8 1017.8 0.0
16/09:30am 15.3 6.0 5.2 51 4.8 WSW 43 54 23 29 1017.6 1017.6 0.0
16/09:00am 14.6 5.2 5.4 54 4.3 WSW 44 56 24 30 1017.1 1017.1 0.0
16/08:30am 13.7 3.9 5.3 57 3.9 WSW 46 57 25 31 1016.9 1016.9 0.0
16/08:00am 13.0 2.0 4.9 58 3.7 WSW 52 67 28 36 1016.7 1016.7 0.0
16/07:30am 12.4 2.5 4.6 59 3.6 WSW 46 59 25 32 1016.6 1016.6 0.0
16/07:00am 12.2 2.6 4.4 59 3.5 WSW 44 56 24 30 1016.6 1016.6 0.0
16/06:30am 12.2 2.2 4.4 59 3.5 WSW 46 57 25 31 1016.2 1016.2 0.0
16/06:00am 12.3 1.6 4.5 59 3.5 WSW 50 69 27 37 1015.9 1015.9 0.0
16/05:59am 12.5 1.8 4.5 58 3.6 WSW 50 69 27 37 1015.8 1015.8 0.0
16/05:30am 12.2 2.6 4.4 59 3.5 WSW 44 54 24 29 1015.8 1015.8 0.0
16/05:00am 12.5 3.1 4.2 57 3.8 WSW 43 57 23 31 1015.2 1015.2 0.0
16/04:30am 12.0 3.7 4.2 59 3.5 W 37 44 20 24 1015.6 1015.6 0.0
16/04:05am 11.9 5.0 4.4 60 3.4 W 30 48 16 26 1015.9 1015.9 0.0
16/04:00am 11.9 4.5 4.2 59 3.5 W 32 48 17 26 1015.9 1015.9 0.0
16/03:34am 12.1 5.5 4.3 59 3.5 W 28 46 15 25 1015.9 1015.9 0.0
16/03:30am 12.1 5.5 4.3 59 3.5 W 28 41 15 22 1015.8 1015.8 0.0
16/03:00am 12.2 5.2 4.2 58 3.6 W 30 37 16 20 1016.0 1016.0 0.0
16/02:30am 12.1 3.0 4.1 58 3.6 W 41 52 22 28 1016.1 1016.1 0.0
16/02:00am 12.0 3.7 4.0 58 3.6 W 37 44 20 24 1016.2 1016.2 0.0
16/01:30am 11.7 5.4 4.0 59 3.4 W 26 37 14 20 1016.4 1016.4 0.0
16/01:00am 11.6 4.0 4.1 60 3.4 W 33 48 18 26 1016.3 1016.3 0.0
16/12:30am 11.8 4.2 4.1 59 3.5 W 33 39 18 21 1016.3 1016.3 0.0
16/12:00am 11.5 5.2 3.8 59 3.4 W 26 35 14 19 1016.9 1016.9 0.0
 
Date/Time
EST
Temp
°C
App
Temp
°C
Dew
Point
°C
Rel
Hum
%
Delta-T
°C
Wind Press
QNH
hPa
Press
MSL
hPa
Rain since
9am
mm
Dir  Spd
km/h
Gust
km/h
Spd
kts
Gust
kts
15/11:30pm 11.7 2.6 4.0 59 3.4 W 41 52 22 28 1016.8 1016.8 0.0
15/11:00pm 11.2 3.6 3.7 60 3.3 W 33 44 18 24 1017.1 1017.1 0.0
15/10:30pm 11.8 4.2 3.8 58 3.6 W 33 43 18 23 1017.2 1017.2 0.0
15/10:00pm 12.2 2.7 3.7 56 3.8 WSW 43 56 23 30 1017.2 1017.2 0.0
15/09:30pm 12.0 3.6 3.8 57 3.7 W 37 46 20 25 1017.2 1017.2 0.0
15/09:00pm 12.1 3.3 3.6 56 3.8 W 39 54 21 29 1017.3 1017.3 0.0
15/08:30pm 12.1 3.6 3.3 55 3.9 WSW 37 48 20 26 1017.5 1017.5 0.0
15/08:00pm 12.6 4.1 3.3 53 4.1 WSW 37 50 20 27 1017.7 1017.7 0.0
15/07:30pm 12.3 5.5 3.3 54 4.0 WSW 28 39 15 21 1018.0 1018.0 0.0
15/07:00pm 12.1 6.5 3.6 56 3.8 WSW 22 37 12 20 1018.1 1018.1 0.0
15/06:49pm 12.4 5.3 3.4 54 4.0 WSW 30 48 16 26 1018.1 1018.1 0.0
15/06:30pm 12.9 5.8 3.6 53 4.2 WSW 30 46 16 25 1017.9 1017.9 0.0
15/06:11pm 12.9 5.4 3.3 52 4.3 WSW 32 50 17 27 1017.7 1017.7 0.0
15/06:00pm 13.3 5.8 3.4 51 4.4 WSW 32 44 17 24 1017.5 1017.5 0.0
15/05:51pm 13.6 6.9 3.4 50 4.6 WSW 28 48 15 26 1017.5 1017.5 0.0
15/05:30pm 13.6 7.2 3.4 50 4.6 WSW 26 35 14 19 1017.5 1017.5 0.0
15/05:00pm 14.0 8.4 3.2 48 4.8 W 22 32 12 17 1016.8 1016.8 0.0
15/04:30pm 14.8 8.0 3.0 45 5.3 W 28 37 15 20 1016.7 1016.7 0.0
15/04:00pm 15.7 8.8 2.8 42 5.8 W 28 41 15 22 1016.4 1016.4 0.0
15/03:30pm 16.1 9.6 2.9 41 6.0 W 26 35 14 19 1016.2 1016.2 0.0
15/03:00pm 16.6 9.8 3.3 41 6.1 W 28 35 15 19 1016.1 1016.1 0.0
15/02:30pm 17.0 10.9 2.6 38 6.5 W 24 33 13 18 1016.0 1016.0 0.0
15/02:00pm 16.8 10.5 1.7 36 6.7 WSW 24 39 13 21 1015.7 1015.7 0.0
15/01:30pm 17.0 10.9 2.6 38 6.5 WSW 24 37 13 20 1015.8 1015.8 0.0
15/01:00pm 16.4 9.5 2.8 40 6.2 WSW 28 41 15 22 1016.0 1016.0 0.0
15/12:30pm 16.6 10.7 1.9 37 6.6 SW 22 37 12 20 1016.2 1016.2 0.0
15/12:00pm 16.1 9.1 1.8 38 6.3 WSW 28 41 15 22 1016.5 1016.5 0.0
15/11:30am 15.6 9.2 1.0 37 6.3 SW 24 39 13 21 1016.9 1016.9 0.0
15/11:17am 15.6 8.5 1.4 38 6.2 WSW 28 46 15 25 1016.9 1016.9 0.0
15/11:00am 15.3 8.8 2.5 42 5.7 SSW 26 44 14 24 1016.9 1016.9 0.0
15/10:30am 15.0 8.9 2.5 43 5.6 SW 24 46 13 25 1017.1 1017.1 0.0
15/10:00am 14.6 8.1 2.5 44 5.4 WSW 26 39 14 21 1016.8 1016.8 0.0
15/09:42am 14.4 7.6 2.9 46 5.1 WSW 28 46 15 25 1016.6 1016.6 0.0
15/09:30am 14.3 9.6 3.2 47 5.0 WSW 17 33 9 18 1016.3 1016.3 0.0
15/09:00am 13.8 10.3 3.6 50 4.6 WSW 11 32 6 17 1015.8 1015.8 0.0
15/08:30am 13.1 8.0 4.3 55 4.0 W 20 37 11 20 1015.3 1015.3 0.0
15/08:00am 12.4 7.5 4.1 57 3.7 W 19 30 10 16 1014.7 1014.7 0.0
15/07:30am 11.6 6.7 3.9 59 3.4 WNW 19 28 10 15 1014.1 1014.1 0.0
15/07:16am 12.1 5.0 3.6 56 3.8 WSW 30 48 16 26 1013.9 1013.9 0.0
15/07:00am 12.1 5.7 3.3 55 3.9 W 26 37 14 20 1013.5 1013.5 0.0
15/06:31am 12.3 5.2 3.5 55 3.9 WSW 30 48 16 26 1012.7 1012.7 0.0
15/06:30am 12.1 5.3 3.3 55 3.9 WSW 28 44 15 24 1012.6 1012.6 0.0
15/06:00am 12.1 4.1 3.6 56 3.8 WSW 35 46 19 25 1011.1 1011.1 0.0
15/05:30am 12.5 2.9 3.5 54 4.0 WSW 43 63 23 34 1010.2 1010.2 0.0
15/05:00am 12.2 2.7 3.7 56 3.8 W 43 65 23 35 1009.7 1009.7 0.0
15/04:30am 12.1 2.0 3.9 57 3.7 W 46 65 25 35 1008.8 1008.8 0.0
15/04:00am 12.4 1.6 3.9 56 3.8 WSW 50 70 27 38 1008.7 1008.7 0.0
15/03:32am 12.6 1.0 3.8 55 3.9 WSW 54 72 29 39 1008.3 1008.3 0.0
15/03:30am 12.7 0.7 3.9 55 4.0 WSW 56 72 30 39 1008.3 1008.3 0.0
15/03:02am 12.9 1.3 3.8 54 4.1 W 54 72 29 39 1008.4 1008.4 0.0
15/03:00am 12.8 1.2 3.7 54 4.1 W 54 70 29 38 1008.6 1008.6 0.0
15/02:30am 13.3 2.5 3.9 53 4.3 WSW 50 74 27 40 1009.2 1009.2 0.0
15/02:00am 13.2 2.3 3.8 53 4.2 WSW 50 80 27 43 1009.1 1009.1 0.0
15/01:30am 13.2 2.7 3.8 53 4.2 W 48 76 26 41 1008.6 1008.6 0.0
15/01:00am 13.1 1.8 3.7 53 4.2 W 52 74 28 40 1008.8 1008.8 0.0
15/12:30am 12.9 2.8 3.8 54 4.1 W 46 80 25 43 1009.3 1009.3 0.0
15/12:00am 13.4 2.2 4.0 53 4.3 W 52 74 28 40 1010.0 1010.0 0.0
 
Date/Time
EST
Temp
°C
App
Temp
°C
Dew
Point
°C
Rel
Hum
%
Delta-T
°C
Wind Press
QNH
hPa
Press
MSL
hPa
Rain since
9am
mm
Dir  Spd
km/h
Gust
km/h
Spd
kts
Gust
kts
14/11:55pm 13.4 3.0 4.0 53 4.3 W 48 74 26 40 1010.1 1010.1 0.0
14/11:37pm 13.3 5.4 4.2 54 4.1 W 35 56 19 30 1010.7 1010.7 0.0
14/11:30pm 13.1 5.5 4.0 54 4.1 W 33 44 18 24 1011.4 1011.4 0.0
14/11:09pm 13.3 6.3 3.9 53 4.3 W 30 48 16 26 1011.7 1011.7 0.0
14/11:00pm 12.9 6.2 3.8 54 4.1 W 28 43 15 23 1012.1 1012.1 0.0
14/10:30pm 12.9 7.7 3.8 54 4.1 WNW 20 35 11 19 1012.2 1012.2 0.0
14/10:05pm 12.7 6.0 3.4 53 4.1 W 28 52 15 28 1012.5 1012.5 0.0
14/10:00pm 12.4 6.8 3.4 54 4.0 W 22 33 12 18 1012.5 1012.5 0.0
14/09:30pm 12.4 5.7 3.4 54 4.0 WNW 28 39 15 21 1012.8 1012.8 0.0
14/09:18pm 12.4 5.2 3.1 53 4.1 WNW 30 50 16 27 1013.2 1013.2 0.0
14/09:10pm 12.3 5.9 3.0 53 4.1 WNW 26 46 14 25 1013.0 1013.0 0.0
14/09:00pm 12.2 7.1 2.9 53 4.1 W 19 41 10 22 1013.5 1013.5 0.0
14/08:52pm 12.3 7.2 3.0 53 4.1 WNW 19 41 10 22 1013.5 1013.5 0.0
14/08:30pm 12.5 7.1 2.7 51 4.3 NW 20 43 11 23 1013.7 1013.7 0.0
14/08:00pm 12.0 7.6 2.7 53 4.1 W 15 41 8 22 1013.8 1013.8 0.0
14/07:30pm 11.8 4.9 2.5 53 4.0 WNW 28 50 15 27 1013.6 1013.6 0.0
14/07:00pm 11.9 3.6 2.4 52 4.1 WNW 35 65 19 35 1013.0 1013.0 0.0
14/06:30pm 11.9 4.0 2.1 51 4.2 WNW 33 56 18 30 1013.3 1013.3 0.0
14/06:26pm 12.1 5.5 2.3 51 4.2 NW 26 56 14 30 1012.9 1012.9 0.0
14/06:23pm 11.9 6.6 2.1 51 4.2 NW 19 56 10 30 1013.5 1013.5 0.0
14/06:00pm 11.7 6.2 1.9 51 4.2 NW 20 39 11 21 1013.6 1013.6 0.0
14/05:44pm 11.8 4.8 2.0 51 4.2 NW 28 54 15 29 1013.9 1013.9 0.0
14/05:30pm 11.2 5.6 1.5 51 4.1 NNW 20 48 11 26 1013.7 1013.7 0.0
14/05:05pm 11.3 4.2 1.5 51 4.1 WNW 28 54 15 29 1014.1 1014.1 0.0
14/05:00pm 11.0 3.9 1.5 52 4.0 WNW 28 44 15 24 1014.1 1014.1 0.0
14/04:37pm 11.4 4.6 1.1 49 4.3 NW 26 54 14 29 1014.2 1014.2 0.0
14/04:33pm 11.5 5.9 1.2 49 4.3 NW 20 48 11 26 1014.2 1014.2 0.0
14/04:30pm 11.6 6.9 1.0 48 4.4 NNW 15 30 8 16 1014.5 1014.5 0.0
14/04:00pm 11.7 4.2 1.4 49 4.3 WNW 30 54 16 29 1013.9 1013.9 0.0
14/03:30pm 12.6 4.6 1.6 47 4.7 WNW 33 65 18 35 1013.6 1013.6 0.0
14/03:00pm 13.1 5.3 1.8 46 4.9 WNW 32 57 17 31 1014.1 1014.1 0.0
14/02:47pm 12.9 2.8 1.6 46 4.8 W 44 65 24 35 1014.7 1014.7 0.0
14/02:30pm 12.8 0.2 1.5 46 4.8 W 57 76 31 41 1014.4 1014.4 0.0
14/02:17pm 13.0 3.1 1.4 45 5.0 W 43 91 23 49 1014.7 1014.7 0.0
14/02:16pm 13.0 3.8 1.4 45 5.0 W 39 91 21 49 1014.7 1014.7 0.0
14/02:08pm 13.1 5.6 1.5 45 5.0 W 30 89 16 48 1015.1 1015.1 0.0
14/02:06pm 13.2 5.7 0.9 43 5.2 W 30 63 16 34 1015.3 1015.3 0.0
14/02:00pm 13.5 4.4 1.8 45 5.1 W 39 65 21 35 1015.2 1015.2 0.0
14/01:30pm 13.4 5.6 1.4 44 5.1 W 32 52 17 28 1016.4 1016.4 0.0
14/01:10pm 13.4 5.9 1.4 44 5.1 W 30 48 16 26 1017.0 1017.0 0.0
14/01:00pm 13.8 6.4 1.8 44 5.2 WNW 30 46 16 25 1017.2 1017.2 0.0
14/12:39pm 13.9 5.9 1.9 44 5.2 W 33 52 18 28 1017.1 1017.1 0.0
14/12:30pm 13.5 3.5 0.9 42 5.3 W 43 52 23 28 1017.1 1017.1 0.0
14/12:19pm 13.9 5.4 0.9 41 5.5 WNW 35 54 19 29 1017.2 1017.2 0.0
14/12:00pm 14.0 5.2 1.3 42 5.5 W 37 54 20 29 1017.7 1017.7 0.0
14/11:30am 13.5 3.5 0.9 42 5.3 W 43 57 23 31 1018.3 1018.3 0.0
14/11:25am 13.3 4.4 0.7 42 5.3 WSW 37 56 20 30 1018.5 1018.5 0.0
14/11:00am 13.0 3.4 1.4 45 4.9 W 41 54 22 29 1019.0 1019.0 0.0
14/10:36am 12.4 3.2 1.1 46 4.8 W 39 57 21 31 1019.3 1019.3 0.0
14/10:30am 12.3 3.1 1.0 46 4.8 W 39 56 21 30 1019.7 1019.7 0.0
14/10:02am 11.9 4.0 1.0 47 4.6 W 32 54 17 29 1020.2 1020.2 0.0
14/10:00am 11.9 4.0 1.3 48 4.5 W 32 46 17 25 1020.3 1020.3 0.0
14/09:30am 10.9 3.7 0.9 50 4.1 W 28 46 15 25 1020.9 1020.9 0.0
14/09:03am 10.1 2.9 0.4 51 3.9 W 28 46 15 25 1021.1 1021.1 0.0
14/09:00am 10.1 3.3 1.0 53 3.7 W 26 35 14 19 1021.2 1021.2 0.0
14/08:30am 9.2 1.7 0.9 56 3.4 WSW 30 44 16 24 1020.9 1020.9 0.0
14/08:10am 8.8 1.6 0.5 56 3.3 WSW 28 46 15 25 1021.0 1021.0 0.0
14/08:00am 8.5 2.0 0.5 57 3.2 W 24 32 13 17 1021.0 1021.0 0.0
14/07:30am 8.0 1.1 0.3 58 3.0 W 26 39 14 21 1020.9 1020.9 0.0
14/07:00am 7.3 0.8 0.1 60 2.8 W 24 35 13 19 1020.8 1020.8 0.0
14/06:30am 7.9 1.0 0.2 58 3.0 WSW 26 37 14 20 1020.3 1020.3 0.0
14/06:00am 7.7 1.6 0.2 59 2.9 WSW 22 30 12 16 1020.3 1020.3 0.0
14/05:30am 7.8 0.5 0.3 59 3.0 WSW 28 33 15 18 1019.7 1019.7 0.0
14/05:00am 8.0 0.0 0.3 58 3.0 WSW 32 41 17 22 1019.6 1019.6 0.0
14/04:30am 8.3 -0.7 0.3 57 3.2 W 37 46 20 25 1019.5 1019.5 0.0
14/04:00am 8.5 -0.8 0.5 57 3.2 W 39 46 21 25 1019.7 1019.7 0.0
14/03:30am 8.3 0.3 0.5 58 3.1 W 32 41 17 22 1019.7 1019.7 0.0
14/03:00am 8.8 0.7 0.8 57 3.2 W 33 44 18 24 1019.6 1019.6 0.0
14/02:30am 8.6 1.0 0.6 57 3.2 W 30 43 16 23 1019.6 1019.6 0.0
14/02:00am 9.1 0.5 0.3 54 3.5 W 35 48 19 26 1019.6 1019.6 0.0
14/01:30am 9.2 2.3 0.1 53 3.6 WSW 26 35 14 19 1019.5 1019.5 0.0
14/01:00am 9.5 1.5 0.4 53 3.7 WSW 32 43 17 23 1019.6 1019.6 0.0
14/12:43am 9.4 1.2 0.3 53 3.7 WSW 33 52 18 28 1019.5 1019.5 0.0
14/12:30am 9.8 1.6 0.2 51 3.9 WSW 33 50 18 27 1019.3 1019.3 0.0
14/12:07am 9.9 0.2 0.3 51 3.9 WSW 41 59 22 32 1019.2 1019.2 0.0
14/12:00am 9.8 0.1 0.7 53 3.7 W 41 54 22 29 1019.1 1019.1 0.0
 
Date/Time
EST
Temp
°C
App
Temp
°C
Dew
Point
°C
Rel
Hum
%
Delta-T
°C
Wind Press
QNH
hPa
Press
MSL
hPa
Rain since
9am
mm
Dir  Spd
km/h
Gust
km/h
Spd
kts
Gust
kts
13/11:32pm 10.0 1.2 1.1 54 3.7 W 37 56 20 30 1018.8 1018.8 0.0
13/11:30pm 9.8 1.0 1.2 55 3.5 W 37 50 20 27 1018.8 1018.8 0.0
13/11:02pm 10.0 2.0 1.9 57 3.4 W 33 52 18 28 1018.9 1018.9 0.0
13/11:00pm 9.8 2.0 1.9 58 3.3 W 32 44 17 24 1019.0 1019.0 0.0
13/10:48pm 10.0 0.9 1.6 56 3.5 W 39 57 21 31 1018.9 1018.9 0.0
13/10:30pm 9.8 1.4 1.7 57 3.4 W 35 52 19 28 1018.8 1018.8 0.0
13/10:00pm 10.2 0.2 1.3 54 3.7 W 43 65 23 35 1018.3 1018.3 0.0
13/09:31pm 10.1 1.3 1.2 54 3.7 W 37 65 20 35 1018.0 1018.0 0.0
13/09:30pm 10.1 1.3 1.2 54 3.7 W 37 52 20 28 1018.0 1018.0 0.0
13/09:05pm 10.1 1.4 1.7 56 3.5 W 37 56 20 30 1017.9 1017.9 0.0
13/09:00pm 10.2 1.8 1.8 56 3.5 W 35 50 19 27 1017.8 1017.8 0.0
13/08:37pm 10.3 2.3 1.9 56 3.5 W 33 61 18 33 1017.7 1017.7 0.0
13/08:30pm 10.0 2.0 1.9 57 3.4 WSW 33 48 18 26 1017.7 1017.7 0.0
13/08:01pm 10.2 0.7 1.8 56 3.5 W 41 59 22 32 1017.5 1017.5 0.0
13/08:00pm 10.2 0.3 1.8 56 3.5 W 43 59 23 32 1017.4 1017.4 0.0
13/07:38pm 10.1 0.6 1.5 55 3.6 W 41 59 22 32 1017.0 1017.0 0.0
13/07:30pm 10.1 1.3 1.5 55 3.6 W 37 50 20 27 1017.0 1017.0 0.0
13/07:00pm 10.7 0.6 1.3 52 3.9 W 44 67 24 36 1016.4 1016.4 0.0
13/06:30pm 10.6 0.4 1.2 52 3.9 W 44 65 24 35 1015.8 1015.8 0.0
13/06:00pm 10.8 0.2 1.1 51 4.0 W 46 69 25 37 1015.3 1015.3 0.0
13/05:42pm 10.7 2.3 1.3 52 3.9 W 35 54 19 29 1015.3 1015.3 0.0
13/05:30pm 10.9 2.4 1.2 51 4.0 W 35 50 19 27 1014.9 1014.9 0.0
13/05:10pm 11.0 0.9 1.3 51 4.1 W 44 63 24 34 1014.6 1014.6 0.0
13/05:00pm 11.3 0.0 1.0 49 4.3 W 50 65 27 35 1014.2 1014.2 0.0
13/04:30pm 12.0 1.0 0.8 46 4.7 W 48 76 26 41 1013.7 1013.7 0.0

Other formats

Comma delimited format used in spreadsheet applications
http://www.bom.gov.au/fwo/IDN60801/IDN60801.95748.axf

JavaScript Object Notation format (JSON) in row-major order
http://www.bom.gov.au/fwo/IDN60801/IDN60801.95748.json

Data quality

Most of these data are generated automatically and are frequently updated. Quality checks on data are not normally performed. It is possible for incorrect values to appear. Refer to information at About Latest Weather Observations and please check the disclaimer before using these data.